Time;durP1;ratioP1;P1;durP2;ratioP2;P2;SDS_P1;SDS_P2;PMS_P1;PMS_P2;Temp;Humidity;BMP_temperature;BMP_pressure;BME280_temperature;BME280_humidity;BME280_pressure;Samples;Min_cycle;Max_cycle;Signal;HPM_P1;HPM_P2
2021/06/28 00:01:28;;;;;;;10.55;9.45;;;18.60;90.50;;;;;;5094970;28;20028;-36
2021/06/28 00:03:53;;;;;;;11.75;9.85;;;18.50;90.60;;;;;;5094822;28;20042;-37
2021/06/28 00:06:20;;;;;;;10.95;9.82;;;18.50;90.70;;;;;;5095186;28;20023;-37
2021/06/28 00:08:46;;;;;;;13.63;9.85;;;18.40;91.00;;;;;;5094727;28;20060;-37
2021/06/28 00:11:12;;;;;;;13.30;10.00;;;18.30;91.20;;;;;;5095227;28;20027;-36
2021/06/28 00:13:40;;;;;;;12.63;10.00;;;18.40;91.20;;;;;;5094892;28;20055;-36
2021/06/28 00:16:05;;;;;;;11.25;10.15;;;18.50;91.60;;;;;;5094426;28;20024;-36
2021/06/28 00:18:32;;;;;;;15.32;10.50;;;18.70;90.50;;;;;;5094152;28;20417;-36
2021/06/28 00:20:59;;;;;;;14.40;10.05;;;18.70;90.50;;;;;;5094245;28;20024;-36
2021/06/28 00:23:24;;;;;;;10.63;9.05;;;18.70;90.50;;;;;;5094196;28;20023;-41
2021/06/28 00:25:50;;;;;;;14.77;9.65;;;18.60;90.80;;;;;;5076548;28;20021;-36
2021/06/28 00:28:18;;;;;;;12.23;10.02;;;18.50;90.80;;;;;;5094070;28;20027;-36
2021/06/28 00:30:45;;;;;;;13.18;10.30;;;18.50;91.40;;;;;;5094333;28;20154;-36
2021/06/28 00:33:13;;;;;;;16.25;11.40;;;18.80;90.20;;;;;;5094164;28;20170;-36
2021/06/28 00:35:39;;;;;;;16.23;10.23;;;18.60;90.00;;;;;;5093979;28;20080;-36
2021/06/28 00:38:07;;;;;;;11.00;9.88;;;18.50;90.20;;;;;;5093867;28;20020;-37
2021/06/28 00:40:34;;;;;;;12.48;10.00;;;18.50;90.10;;;;;;5093819;28;20054;-40
2021/06/28 00:43:00;;;;;;;12.57;9.98;;;18.50;90.00;;;;;;5093319;28;20059;-37
2021/06/28 00:45:37;;;;;;;16.90;12.40;;;18.50;89.80;;;;;;5094149;28;20028;-36
2021/06/28 00:48:06;;;;;;;12.00;9.98;;;18.50;89.50;;;;;;5094011;28;20054;-36
2021/06/28 00:50:35;;;;;;;14.32;12.40;;;18.60;89.30;;;;;;5093938;28;20035;-38
2021/06/28 00:53:07;;;;;;;12.65;10.98;;;18.60;89.40;;;;;;5093985;28;20032;-36
2021/06/28 00:55:33;;;;;;;11.98;10.68;;;18.60;89.60;;;;;;5075847;28;20028;-37
2021/06/28 00:57:59;;;;;;;16.27;12.52;;;18.50;89.70;;;;;;5094385;28;20115;-37
2021/06/28 01:00:25;;;;;;;12.38;11.13;;;18.50;89.80;;;;;;5094483;28;20024;-37
2021/06/28 01:02:52;;;;;;;21.42;13.43;;;18.60;89.70;;;;;;5093980;28;20147;-38
2021/06/28 01:05:21;;;;;;;14.32;11.82;;;18.70;90.40;;;;;;5094024;28;20468;-36
2021/06/28 01:07:48;;;;;;;14.30;11.53;;;18.70;89.90;;;;;;5093809;28;20020;-37
2021/06/28 01:10:15;;;;;;;13.85;12.10;;;18.50;90.30;;;;;;5093692;28;20028;-37
2021/06/28 01:12:46;;;;;;;15.75;11.80;;;18.40;90.80;;;;;;5094143;28;20031;-37
2021/06/28 01:15:12;;;;;;;14.25;11.93;;;18.30;91.00;;;;;;5093796;28;20094;-37
2021/06/28 01:17:39;;;;;;;18.15;12.57;;;18.30;90.80;;;;;;5093426;28;20497;-37
2021/06/28 01:20:10;;;;;;;12.70;11.43;;;18.30;90.70;;;;;;5094124;28;20472;-36
2021/06/28 01:22:38;;;;;;;15.32;12.10;;;18.40;90.30;;;;;;5093911;28;20103;-38
2021/06/28 01:25:07;;;;;;;19.15;13.23;;;18.30;90.70;;;;;;5093617;28;20490;-37
2021/06/28 01:27:32;;;;;;;15.95;11.95;;;18.30;90.90;;;;;;5093270;28;20020;-37
2021/06/28 01:29:58;;;;;;;20.42;11.68;;;18.30;91.00;;;;;;5093721;28;20027;-37
2021/06/28 01:32:26;;;;;;;16.35;12.07;;;18.30;90.70;;;;;;5093209;28;20047;-37
2021/06/28 01:34:52;;;;;;;14.45;12.88;;;18.20;91.20;;;;;;5075598;28;20471;-37
2021/06/28 01:37:26;;;;;;;14.48;12.77;;;18.20;90.90;;;;;;5093698;28;20024;-37
2021/06/28 01:39:56;;;;;;;17.85;13.55;;;18.20;91.10;;;;;;5093608;28;20099;-37
2021/06/28 01:42:23;;;;;;;19.33;12.90;;;18.10;91.20;;;;;;5093569;28;20016;-37
2021/06/28 01:44:50;;;;;;;15.48;13.70;;;18.10;91.50;;;;;;5075321;28;20028;-37
2021/06/28 01:47:16;;;;;;;14.77;12.65;;;18.10;91.70;;;;;;5093265;28;20028;-37
2021/06/28 01:49:42;;;;;;;15.65;13.45;;;18.10;91.70;;;;;;5075157;28;20468;-37
2021/06/28 01:52:08;;;;;;;19.98;13.10;;;18.20;91.20;;;;;;5093752;28;20023;-38
2021/06/28 01:54:34;;;;;;;16.13;13.00;;;18.20;90.90;;;;;;5095291;28;20074;-38
2021/06/28 01:57:00;;;;;;;15.82;13.10;;;18.10;91.30;;;;;;5097148;28;20073;-37
2021/06/28 01:59:30;;;;;;;21.67;13.80;;;17.90;91.90;;;;;;5097247;28;20464;-35
2021/06/28 02:01:56;;;;;;;17.05;14.32;;;17.80;92.00;;;;;;5097192;28;20470;-35
2021/06/28 02:04:22;;;;;;;21.90;13.82;;;17.80;92.30;;;;;;5097636;28;20047;-38
2021/06/28 02:06:48;;;;;;;17.45;13.80;;;17.80;92.00;;;;;;5097130;28;20475;-37
2021/06/28 02:09:15;;;;;;;17.33;14.55;;;17.90;92.00;;;;;;5097067;28;20024;-37
2021/06/28 02:11:40;;;;;;;17.83;14.27;;;17.90;92.20;;;;;;5078494;28;20020;-37
2021/06/28 02:14:06;;;;;;;15.55;13.10;;;17.80;92.00;;;;;;5096587;28;20047;-37
2021/06/28 02:16:32;;;;;;;20.73;13.40;;;17.80;91.90;;;;;;5095381;28;20028;-37
2021/06/28 02:18:58;;;;;;;18.65;13.57;;;17.80;91.70;;;;;;5096372;28;20464;-37
2021/06/28 02:21:23;;;;;;;20.27;15.15;;;18.00;91.10;;;;;;5096459;28;20028;-37
2021/06/28 02:23:49;;;;;;;16.77;14.10;;;18.00;91.10;;;;;;5096721;28;20491;-37
2021/06/28 02:26:15;;;;;;;20.90;14.80;;;17.90;91.10;;;;;;5095120;28;20357;-37
2021/06/28 02:28:43;;;;;;;21.40;14.75;;;17.80;91.50;;;;;;5096322;28;20069;-37
2021/06/28 02:31:12;;;;;;;20.90;14.45;;;17.80;91.80;;;;;;5096966;28;20047;-37
2021/06/28 02:33:39;;;;;;;18.90;13.57;;;17.80;91.80;;;;;;5096113;28;20108;-37
2021/06/28 02:36:06;;;;;;;16.23;13.13;;;17.80;91.70;;;;;;5096413;28;20020;-37
2021/06/28 02:38:32;;;;;;;20.33;15.07;;;17.80;91.70;;;;;;5078163;28;20066;-35
2021/06/28 02:40:58;;;;;;;18.27;15.10;;;18.20;91.50;;;;;;5096295;28;20024;-38
2021/06/28 02:43:24;;;;;;;18.80;15.55;;;18.10;90.90;;;;;;5077961;28;20471;-36
2021/06/28 02:45:50;;;;;;;19.90;15.23;;;18.00;92.00;;;;;;5096269;28;20050;-38
2021/06/28 02:48:15;;;;;;;19.48;15.50;;;17.80;91.60;;;;;;5096435;28;20031;-38
2021/06/28 02:50:41;;;;;;;19.30;14.55;;;17.80;91.80;;;;;;5095890;28;20020;-37
2021/06/28 02:53:07;;;;;;;18.65;13.80;;;17.80;91.70;;;;;;5096575;28;20031;-37
2021/06/28 02:55:33;;;;;;;19.20;15.10;;;17.70;92.10;;;;;;5095587;28;20107;-37
2021/06/28 02:58:00;;;;;;;19.15;16.30;;;17.80;91.90;;;;;;5095912;28;20120;-37
2021/06/28 03:00:26;;;;;;;21.30;14.77;;;18.00;91.80;;;;;;5095606;28;20032;-38
2021/06/28 03:02:52;;;;;;;16.90;14.80;;;18.10;90.90;;;;;;5095874;28;20081;-37
2021/06/28 03:05:18;;;;;;;17.15;13.80;;;17.90;91.20;;;;;;5094781;28;20105;-37
2021/06/28 03:07:44;;;;;;;20.77;14.82;;;17.70;91.30;;;;;;5095508;28;20099;-37
2021/06/28 03:10:12;;;;;;;24.33;13.88;;;17.70;91.70;;;;;;5095449;28;20059;-37
2021/06/28 03:12:39;;;;;;;17.38;13.82;;;17.70;91.70;;;;;;5095363;28;20028;-37
2021/06/28 03:15:08;;;;;;;19.70;13.40;;;17.60;91.50;;;;;;5095346;28;20024;-37
2021/06/28 03:17:34;;;;;;;19.42;13.57;;;17.60;91.80;;;;;;5077323;28;20118;-37
2021/06/28 03:19:59;;;;;;;22.88;15.02;;;17.60;92.00;;;;;;5095267;28;20453;-37
2021/06/28 03:22:25;;;;;;;17.73;13.48;;;17.80;91.50;;;;;;5095365;28;20095;-37
2021/06/28 03:24:51;;;;;;;15.05;13.32;;;17.70;91.50;;;;;;5095355;28;20020;-37
2021/06/28 03:27:16;;;;;;;18.55;13.73;;;17.70;91.50;;;;;;5095486;28;20024;-37
2021/06/28 03:29:43;;;;;;;24.02;14.40;;;17.70;91.50;;;;;;5095158;28;20039;-37
2021/06/28 03:32:08;;;;;;;17.83;13.48;;;17.60;91.50;;;;;;5095033;28;20020;-37
2021/06/28 03:34:34;;;;;;;20.05;13.82;;;17.60;91.70;;;;;;5094873;28;20058;-37
2021/06/28 03:37:00;;;;;;;17.38;13.45;;;17.60;91.80;;;;;;5095714;28;20024;-37
2021/06/28 03:39:25;;;;;;;25.33;15.00;;;17.70;91.70;;;;;;5095364;28;20051;-36
2021/06/28 03:41:51;;;;;;;14.05;12.65;;;17.50;91.80;;;;;;5093640;28;20020;-37
2021/06/28 03:44:17;;;;;;;18.88;14.13;;;17.60;91.60;;;;;;5095096;28;20024;-37
2021/06/28 03:46:42;;;;;;;17.13;12.25;;;17.60;91.60;;;;;;5095017;28;20425;-37
2021/06/28 03:49:08;;;;;;;19.10;13.55;;;17.60;91.80;;;;;;5095521;28;20023;-37
2021/06/28 03:51:34;;;;;;;20.77;13.13;;;17.70;91.40;;;;;;5094725;28;20031;-37
2021/06/28 03:53:59;;;;;;;16.65;11.93;;;17.70;91.20;;;;;;5094649;28;20032;-37
2021/06/28 03:56:25;;;;;;;17.65;12.50;;;17.70;91.10;;;;;;5095370;28;20054;-37
2021/06/28 03:58:51;;;;;;;19.98;14.07;;;17.70;90.90;;;;;;5094425;28;20039;-37
2021/06/28 04:01:16;;;;;;;13.57;12.18;;;17.60;91.00;;;;;;5094641;28;20020;-37
2021/06/28 04:03:42;;;;;;;16.40;12.48;;;17.70;90.80;;;;;;5076395;28;20048;-37
2021/06/28 04:06:09;;;;;;;18.38;11.70;;;17.60;91.00;;;;;;5094674;28;20027;-37
2021/06/28 04:08:36;;;;;;;12.60;10.95;;;17.60;91.10;;;;;;5076177;28;20024;-37
2021/06/28 04:11:03;;;;;;;17.48;11.98;;;17.60;91.20;;;;;;5094572;28;20038;-37
2021/06/28 04:13:29;;;;;;;15.88;11.43;;;17.60;91.30;;;;;;5094191;28;20036;-37
2021/06/28 04:15:55;;;;;;;17.45;11.85;;;17.60;91.30;;;;;;5076001;28;20031;-37
2021/06/28 04:18:21;;;;;;;16.73;13.10;;;17.70;91.30;;;;;;5094010;28;20471;-37
2021/06/28 04:20:46;;;;;;;17.95;12.52;;;17.80;91.10;;;;;;5075857;28;20059;-37
2021/06/28 04:23:12;;;;;;;19.58;12.30;;;17.80;91.00;;;;;;5093932;28;20022;-37
2021/06/28 04:25:38;;;;;;;14.05;12.55;;;17.80;90.70;;;;;;5093959;28;20055;-37
2021/06/28 04:28:05;;;;;;;17.05;12.95;;;17.80;90.60;;;;;;5094276;28;20077;-37
2021/06/28 04:30:30;;;;;;;16.40;12.20;;;17.80;91.00;;;;;;5076041;28;20050;-37
2021/06/28 04:32:56;;;;;;;18.38;12.57;;;17.80;90.90;;;;;;5093899;28;20511;-37
2021/06/28 04:35:25;;;;;;;20.33;13.13;;;17.80;91.00;;;;;;5093972;28;20073;-37
2021/06/28 04:37:52;;;;;;;18.38;12.88;;;17.80;91.10;;;;;;5093699;28;20024;-37
2021/06/28 04:40:20;;;;;;;14.13;12.18;;;17.80;91.00;;;;;;5094176;28;20024;-36
2021/06/28 04:42:47;;;;;;;16.30;12.27;;;18.00;91.00;;;;;;5093783;28;20065;-36
2021/06/28 04:45:14;;;;;;;17.67;12.98;;;18.00;90.50;;;;;;5093816;28;20016;-36
2021/06/28 04:47:40;;;;;;;21.55;13.73;;;18.00;90.90;;;;;;5094224;28;20122;-37
2021/06/28 04:50:08;;;;;;;19.02;13.27;;;18.00;90.70;;;;;;5093948;28;20044;-36
2021/06/28 04:52:34;;;;;;;17.33;11.52;;;18.10;90.70;;;;;;5093649;28;20031;-37
2021/06/28 04:55:02;;;;;;;14.43;11.65;;;18.10;90.40;;;;;;5093652;28;20016;-37
2021/06/28 04:57:27;;;;;;;13.57;11.98;;;18.30;89.90;;;;;;5093501;28;20028;-37
2021/06/28 04:59:56;;;;;;;19.45;12.68;;;18.30;89.80;;;;;;5094424;28;20026;-37
2021/06/28 05:02:22;;;;;;;17.55;12.00;;;18.30;90.20;;;;;;5076510;28;20406;-37
2021/06/28 05:04:47;;;;;;;18.27;12.10;;;18.30;90.30;;;;;;5093933;28;20077;-40
2021/06/28 05:07:16;;;;;;;16.95;11.43;;;18.40;90.10;;;;;;5093938;28;20020;-38
2021/06/28 05:09:44;;;;;;;16.25;11.48;;;18.50;89.60;;;;;;5093557;28;20028;-37
2021/06/28 05:12:12;;;;;;;20.13;13.63;;;18.70;88.70;;;;;;5093583;28;20050;-37
2021/06/28 05:14:38;;;;;;;19.55;13.55;;;18.80;88.40;;;;;;5075335;28;20091;-36
2021/06/28 05:17:05;;;;;;;24.92;12.45;;;18.90;87.60;;;;;;5093924;28;20108;-38
2021/06/28 05:19:31;;;;;;;19.08;13.50;;;19.00;87.90;;;;;;5075280;28;20051;-38
2021/06/28 05:21:57;;;;;;;15.20;12.55;;;19.20;87.10;;;;;;5093125;28;20122;-37
2021/06/28 05:24:22;;;;;;;17.23;12.68;;;19.20;87.20;;;;;;5075273;28;20021;-36
2021/06/28 05:26:48;;;;;;;19.77;13.63;;;19.20;87.10;;;;;;5093023;28;20016;-37
2021/06/28 05:29:14;;;;;;;30.85;14.73;;;19.10;88.10;;;;;;5077116;28;20028;-38
2021/06/28 05:31:40;;;;;;;15.23;13.02;;;19.20;87.60;;;;;;5078487;28;20042;-37
2021/06/28 05:34:06;;;;;;;18.50;12.82;;;19.30;87.20;;;;;;5097073;28;20071;-37
2021/06/28 05:36:33;;;;;;;21.95;13.85;;;19.40;87.00;;;;;;5097308;28;20024;-37
2021/06/28 05:38:59;;;;;;;16.58;12.75;;;19.50;86.60;;;;;;5097868;28;20028;-37
2021/06/28 05:41:24;;;;;;;16.88;12.63;;;19.50;87.60;;;;;;5097060;28;20027;-36
2021/06/28 05:43:50;;;;;;;19.48;12.63;;;19.60;86.80;;;;;;5097494;28;20055;-37
2021/06/28 05:46:16;;;;;;;19.17;13.90;;;19.70;86.70;;;;;;5097012;28;20027;-38
2021/06/28 05:48:41;;;;;;;17.27;13.77;;;19.70;86.50;;;;;;5097223;28;20024;-37
2021/06/28 05:51:08;;;;;;;22.48;13.98;;;19.70;86.40;;;;;;5096885;28;20123;-38
2021/06/28 05:53:34;;;;;;;16.48;12.80;;;19.70;87.40;;;;;;5097055;28;20111;-38
2021/06/28 05:56:01;;;;;;;18.67;12.93;;;19.70;86.80;;;;;;5079039;28;20032;-37
2021/06/28 05:58:28;;;;;;;17.52;14.35;;;19.80;85.80;;;;;;5096645;28;20024;-37
2021/06/28 06:00:56;;;;;;;23.52;13.45;;;19.70;86.80;;;;;;5096168;28;20036;-41
2021/06/28 06:03:22;;;;;;;22.17;12.52;;;19.80;86.90;;;;;;5096363;28;20091;-37
2021/06/28 06:05:48;;;;;;;17.58;14.20;;;19.70;86.90;;;;;;5096683;28;20036;-37
2021/06/28 06:08:14;;;;;;;16.75;13.45;;;19.80;86.70;;;;;;5096583;28;20168;-37
2021/06/28 06:10:40;;;;;;;17.35;13.77;;;20.00;86.20;;;;;;5096400;28;20056;-37
2021/06/28 06:13:12;;;;;;;19.73;12.63;;;20.10;86.40;;;;;;5096718;28;20028;-37
2021/06/28 06:15:37;;;;;;;17.10;12.35;;;20.30;85.30;;;;;;5096306;28;20068;-37
2021/06/28 06:18:03;;;;;;;20.13;13.30;;;20.30;85.70;;;;;;5096409;28;20031;-37
2021/06/28 06:20:29;;;;;;;15.93;11.73;;;20.40;84.80;;;;;;5096661;28;20031;-36
2021/06/28 06:22:55;;;;;;;15.75;12.68;;;20.30;84.70;;;;;;5096392;28;20048;-37
2021/06/28 06:25:20;;;;;;;17.77;11.50;;;20.40;84.80;;;;;;5096176;28;20070;-36
2021/06/28 06:27:46;;;;;;;26.65;11.98;;;20.40;84.60;;;;;;5096293;28;20031;-37
2021/06/28 06:30:12;;;;;;;13.70;11.65;;;20.70;84.70;;;;;;5096656;28;20028;-38
2021/06/28 06:32:42;;;;;;;14.77;12.65;;;20.90;84.00;;;;;;5097149;28;20031;-38
2021/06/28 06:35:08;;;;;;;14.00;11.18;;;21.30;83.40;;;;;;5061408;28;20028;-38
2021/06/28 06:37:34;;;;;;;15.65;11.98;;;21.20;81.80;;;;;;5095854;28;20072;-37
2021/06/28 06:40:00;;;;;;;15.05;11.52;;;21.20;80.60;;;;;;5094077;28;20024;-37
2021/06/28 06:42:25;;;;;;;19.23;12.52;;;21.30;81.70;;;;;;5095561;28;20051;-37
2021/06/28 06:44:51;;;;;;;18.42;11.38;;;21.50;81.20;;;;;;5094325;28;20020;-39
2021/06/28 06:47:17;;;;;;;16.58;10.10;;;21.80;79.50;;;;;;5094261;28;20349;-37
2021/06/28 06:49:42;;;;;;;22.35;11.93;;;21.80;79.80;;;;;;5095838;28;20123;-38
2021/06/28 06:52:09;;;;;;;13.30;10.98;;;21.90;79.40;;;;;;5095483;28;20374;-37
2021/06/28 06:54:35;;;;;;;11.73;9.73;;;21.50;79.20;;;;;;5096003;28;20020;-37
2021/06/28 06:57:01;;;;;;;13.40;11.98;;;21.40;79.70;;;;;;5095278;28;20039;-37
2021/06/28 06:59:27;;;;;;;15.13;9.90;;;21.70;79.60;;;;;;5095236;28;20028;-37
2021/06/28 07:01:53;;;;;;;18.38;11.02;;;22.10;79.00;;;;;;5096023;28;20024;-39
2021/06/28 07:04:19;;;;;;;15.20;10.52;;;22.00;78.80;;;;;;5096026;28;20020;-39
2021/06/28 07:06:44;;;;;;;11.88;10.35;;;22.20;78.10;;;;;;5076776;28;20031;-37
2021/06/28 07:09:10;;;;;;;13.85;10.75;;;22.20;78.60;;;;;;5095285;28;20418;-37
2021/06/28 07:11:36;;;;;;;13.90;10.75;;;22.50;77.30;;;;;;5095259;28;20054;-37
2021/06/28 07:14:02;;;;;;;11.98;9.85;;;22.60;75.90;;;;;;5095486;28;20104;-38
2021/06/28 07:16:31;;;;;;;12.90;10.38;;;22.30;77.90;;;;;;5095077;28;20021;-37
2021/06/28 07:18:58;;;;;;;11.73;10.40;;;22.70;76.80;;;;;;5095042;28;20024;-37
2021/06/28 07:21:24;;;;;;;15.05;11.30;;;22.90;76.30;;;;;;5095313;28;20375;-49
2021/06/28 07:23:52;;;;;;;14.32;9.93;;;23.40;74.80;;;;;;5094569;28;20020;-39
2021/06/28 07:26:18;;;;;;;16.13;10.32;;;23.50;74.00;;;;;;5094916;28;20463;-38
2021/06/28 07:28:44;;;;;;;13.93;9.82;;;23.30;75.20;;;;;;5095328;28;20510;-36
2021/06/28 07:31:09;;;;;;;11.55;10.20;;;23.80;73.70;;;;;;5095022;28;20032;-37
2021/06/28 07:33:39;;;;;;;9.98;8.32;;;24.40;71.90;;;;;;5094908;28;20058;-37
2021/06/28 07:36:05;;;;;;;13.15;8.02;;;25.00;69.90;;;;;;5094948;28;20031;-38
2021/06/28 07:38:30;;;;;;;16.05;8.07;;;25.30;68.10;;;;;;5094546;28;20438;-37
2021/06/28 07:40:56;;;;;;;18.08;8.98;;;25.30;66.90;;;;;;5094545;28;20095;-37
2021/06/28 07:43:22;;;;;;;13.73;9.65;;;25.10;66.20;;;;;;5094017;28;20040;-37
2021/06/28 07:45:47;;;;;;;17.52;10.43;;;24.80;68.60;;;;;;5075679;28;20016;-37
2021/06/28 07:48:14;;;;;;;18.80;9.25;;;24.60;69.00;;;;;;5093959;28;20024;-37
2021/06/28 07:50:40;;;;;;;13.00;8.20;;;24.70;67.30;;;;;;5094392;28;20395;-36
2021/06/28 07:53:05;;;;;;;12.32;9.50;;;24.90;67.40;;;;;;5093879;28;20024;-37
2021/06/28 07:55:31;;;;;;;12.80;9.13;;;24.80;66.50;;;;;;5075595;28;20028;-37
2021/06/28 07:57:57;;;;;;;11.07;8.73;;;24.70;67.40;;;;;;5093718;28;20406;-37
2021/06/28 08:00:23;;;;;;;10.02;8.63;;;25.40;65.60;;;;;;5093722;28;20023;-38
2021/06/28 08:02:49;;;;;;;12.75;9.95;;;25.40;65.50;;;;;;5094068;28;20072;-37
2021/06/28 08:05:15;;;;;;;12.52;9.43;;;25.30;64.80;;;;;;5093665;28;20066;-37
2021/06/28 08:07:42;;;;;;;12.15;8.40;;;25.10;64.80;;;;;;5093811;28;20103;-36
2021/06/28 08:10:11;;;;;;;10.55;9.43;;;24.50;66.50;;;;;;5093549;28;20030;-36
2021/06/28 08:12:37;;;;;;;17.53;10.00;;;24.30;68.70;;;;;;5093717;28;20371;-37
2021/06/28 08:15:05;;;;;;;11.48;8.93;;;24.70;67.00;;;;;;5094106;28;20020;-37
2021/06/28 08:17:30;;;;;;;10.10;8.70;;;25.30;64.00;;;;;;5094936;28;20021;-36
2021/06/28 08:19:56;;;;;;;16.23;9.65;;;24.80;65.60;;;;;;5093608;28;20348;-37
2021/06/28 08:22:22;;;;;;;10.15;8.25;;;25.20;64.60;;;;;;5094050;28;20032;-37
2021/06/28 08:24:47;;;;;;;9.65;8.45;;;25.40;63.00;;;;;;5094066;28;20024;-38
2021/06/28 08:27:13;;;;;;;10.55;8.30;;;25.40;63.80;;;;;;5075953;28;20027;-37
2021/06/28 08:29:43;;;;;;;15.88;9.85;;;25.40;64.70;;;;;;5094039;28;20057;-38
2021/06/28 08:32:09;;;;;;;;;;;25.70;63.30;;;;;;5094440;28;20036;-37
2021/06/28 08:34:35;;;;;;;9.82;8.70;;;26.20;61.10;;;;;;5053344;28;19939;-37
2021/06/28 08:37:01;;;;;;;13.88;10.32;;;26.00;63.10;;;;;;5053373;28;20595;-37
2021/06/28 08:39:28;;;;;;;11.43;9.40;;;25.80;63.40;;;;;;5051696;28;20427;-38
2021/06/28 08:41:55;;;;;;;12.93;9.70;;;26.00;63.30;;;;;;5053320;28;20021;-38
2021/06/28 08:44:22;;;;;;;13.75;10.65;;;26.20;62.40;;;;;;5053171;28;20080;-36
2021/06/28 08:46:48;;;;;;;11.52;9.73;;;25.80;62.50;;;;;;5053867;28;20028;-43
2021/06/28 08:49:15;;;;;;;15.00;11.18;;;26.10;62.40;;;;;;5052559;28;20024;-36
2021/06/28 08:51:43;;;;;;;11.77;9.93;;;26.70;61.20;;;;;;5051741;28;20488;-38
2021/06/28 08:54:11;;;;;;;13.63;9.32;;;27.00;59.70;;;;;;5054042;28;20055;-37
2021/06/28 08:56:38;;;;;;;13.13;9.82;;;27.40;59.00;;;;;;5052316;28;20488;-38
2021/06/28 08:59:05;;;;;;;9.98;8.25;;;28.20;57.10;;;;;;5053319;28;20029;-38
2021/06/28 09:01:33;;;;;;;10.55;9.38;;;28.60;54.20;;;;;;5053377;28;20025;-39
2021/06/28 09:03:59;;;;;;;13.95;9.48;;;27.70;56.80;;;;;;5050930;28;20104;-36
2021/06/28 09:06:26;;;;;;;8.60;7.78;;;27.10;58.50;;;;;;5052693;28;20096;-37
2021/06/28 09:09:01;;;;;;;12.27;8.20;;;27.30;57.30;;;;;;5053220;28;20029;-39
2021/06/28 09:11:28;;;;;;;12.05;8.88;;;27.50;56.90;;;;;;5053089;28;20032;-37
2021/06/28 09:13:56;;;;;;;9.73;8.15;;;27.90;55.80;;;;;;5053215;28;20437;-37
2021/06/28 09:16:27;;;;;;;8.27;7.47;;;28.80;51.90;;;;;;5052252;28;20036;-38
2021/06/28 09:18:53;;;;;;;8.65;7.68;;;29.20;50.50;;;;;;5053201;28;20091;-37
2021/06/28 09:21:37;;;;;;;11.18;6.97;;;29.00;51.00;;;;;;5052942;28;20435;-37
2021/06/28 09:24:08;;;;;;;8.05;6.85;;;28.30;52.50;;;;;;5051476;28;20069;-37
2021/06/28 09:26:36;;;;;;;10.77;9.13;;;27.60;52.70;;;;;;5053593;28;20024;-38
2021/06/28 09:29:07;;;;;;;10.65;8.63;;;27.40;55.80;;;;;;5051623;28;20477;-39
2021/06/28 09:31:36;;;;;;;9.02;6.68;;;27.30;56.40;;;;;;5052659;28;20108;-38
2021/06/28 09:34:23;;;;;;;8.43;7.40;;;27.20;55.50;;;;;;5080971;28;20056;-37
2021/06/28 09:36:57;;;;;;;12.65;7.80;;;26.80;57.20;;;;;;5093027;28;20028;-38
2021/06/28 09:39:25;;;;;;;12.18;7.45;;;27.10;56.20;;;;;;5092746;28;20024;-37
2021/06/28 09:41:57;;;;;;;12.32;8.90;;;26.90;56.30;;;;;;5093085;28;20012;-38
2021/06/28 09:44:28;;;;;;;19.30;8.70;;;26.30;57.90;;;;;;5093020;28;20028;-38
2021/06/28 09:47:06;;;;;;;9.82;7.63;;;26.20;58.90;;;;;;5092579;28;20028;-38
2021/06/28 09:49:32;;;;;;;10.77;9.02;;;26.50;59.10;;;;;;5093319;28;20472;-38
2021/06/28 09:51:57;;;;;;;9.15;8.15;;;26.80;58.60;;;;;;5093022;28;20085;-37
2021/06/28 09:54:23;;;;;;;13.13;8.73;;;26.80;58.30;;;;;;5093149;28;20032;-37
2021/06/28 09:56:51;;;;;;;10.38;7.43;;;26.90;57.60;;;;;;5092626;28;20434;-36
2021/06/28 09:59:37;;;;;;;10.25;7.70;;;27.70;55.30;;;;;;5092843;28;20407;-38
2021/06/28 10:02:14;;;;;;;10.93;7.78;;;28.20;53.70;;;;;;5093589;28;20096;-37
2021/06/28 10:04:58;;;;;;;9.90;8.77;;;28.80;52.90;;;;;;5093566;28;20032;-36
2021/06/28 10:07:36;;;;;;;9.85;8.85;;;29.10;51.90;;;;;;5092470;28;20054;-39
2021/06/28 10:10:12;;;;;;;11.90;9.52;;;29.10;52.10;;;;;;5092814;28;20024;-39
2021/06/28 10:12:41;;;;;;;13.73;8.02;;;29.00;51.50;;;;;;5074176;28;20024;-39
2021/06/28 10:15:10;;;;;;;10.33;7.37;;;28.90;52.30;;;;;;5075721;28;20046;-37
2021/06/28 10:17:37;;;;;;;12.73;8.18;;;29.30;51.60;;;;;;5078025;28;20664;-38
2021/06/28 10:20:08;;;;;;;9.40;8.05;;;28.70;51.50;;;;;;5096558;28;20116;-38
2021/06/28 10:22:35;;;;;;;10.27;9.10;;;28.10;53.80;;;;;;5095626;28;20020;-37
2021/06/28 10:25:02;;;;;;;10.13;7.93;;;28.10;53.90;;;;;;5077626;28;20028;-37
2021/06/28 10:27:30;;;;;;;12.35;9.18;;;28.80;51.70;;;;;;5078533;28;20017;-44
2021/06/28 10:29:56;;;;;;;8.80;7.85;;;28.40;53.70;;;;;;5077703;28;20024;-38
2021/06/28 10:32:23;;;;;;;12.25;7.85;;;28.50;54.10;;;;;;5077682;28;20032;-38
2021/06/28 10:34:52;;;;;;;9.07;7.57;;;28.60;53.30;;;;;;5096223;28;20028;-40
2021/06/28 10:37:47;;;;;;;10.02;8.88;;;28.80;52.20;;;;;;5095977;28;20021;-36
2021/06/28 10:40:23;;;;;;;12.77;8.95;;;28.50;52.90;;;;;;5095268;28;20035;-36
2021/06/28 10:43:14;;;;;;;9.27;8.30;;;28.00;53.50;;;;;;5095557;28;20020;-42
2021/06/28 10:45:43;;;;;;;9.23;7.63;;;27.40;55.30;;;;;;5061431;28;20036;-36
2021/06/28 10:48:14;;;;;;;9.50;8.57;;;27.40;56.40;;;;;;5095524;28;20403;-36
2021/06/28 10:51:04;;;;;;;10.00;8.35;;;27.50;56.50;;;;;;5096033;28;20112;-38
2021/06/28 10:53:36;;;;;;;13.27;8.93;;;27.50;57.20;;;;;;5079462;28;20579;-38
2021/06/28 10:56:29;;;;;;;10.30;9.18;;;27.00;58.00;;;;;;5096057;28;20254;-37
2021/06/28 10:58:59;;;;;;;11.38;9.32;;;27.20;57.00;;;;;;5095097;28;20380;-38
2021/06/28 11:01:37;;;;;;;11.65;9.93;;;27.30;57.10;;;;;;5077820;28;20050;-40
2021/06/28 11:04:08;;;;;;;11.80;9.45;;;27.30;57.10;;;;;;5096068;28;20084;-38
2021/06/28 11:06:35;;;;;;;16.58;9.52;;;27.30;56.70;;;;;;5096132;28;20478;-39
2021/06/28 11:09:11;;;;;;;10.27;9.05;;;27.50;57.00;;;;;;5077147;28;20034;-38
2021/06/28 11:11:43;;;;;;;11.43;10.32;;;27.40;56.90;;;;;;5077035;28;20032;-37
2021/06/28 11:14:09;;;;;;;11.57;9.32;;;27.30;56.00;;;;;;5094793;28;20063;-37
2021/06/28 11:16:35;;;;;;;9.20;8.30;;;27.50;55.40;;;;;;5078091;28;20051;-37
2021/06/28 11:19:40;;;;;;;12.15;9.32;;;27.60;55.50;;;;;;5095290;28;20062;-37
2021/06/28 11:22:36;;;;;;;8.85;7.95;;;27.40;55.00;;;;;;5095026;28;20016;-38
2021/06/28 11:25:08;;;;;;;13.55;9.27;;;27.50;55.90;;;;;;5095145;28;20044;-37
2021/06/28 11:27:56;;;;;;;10.63;9.48;;;27.00;58.80;;;;;;5094490;28;20020;-38
2021/06/28 11:30:24;;;;;;;14.90;10.10;;;26.70;59.70;;;;;;5092814;28;20036;-53
2021/06/28 11:33:05;;;;;;;21.05;11.57;;;26.30;60.60;;;;;;5076594;28;20503;-50
2021/06/28 11:35:43;;;;;;;19.58;12.35;;;26.00;61.70;;;;;;5096532;28;20093;-51
2021/06/28 11:38:38;;;;;;;16.60;13.63;;;25.80;63.10;;;;;;5095999;28;20020;-52
2021/06/28 11:41:10;;;;;;;19.23;14.55;;;25.30;66.80;;;;;;5095770;28;20047;-49
2021/06/28 11:43:57;;;;;;;28.88;17.63;;;24.80;70.00;;;;;;5093554;28;20111;-49
2021/06/28 11:46:41;;;;;;;18.90;16.52;;;24.50;75.60;;;;;;5093694;28;20040;-49
2021/06/28 11:49:12;;;;;;;32.28;18.33;;;24.10;76.30;;;;;;5094810;28;20483;-48
2021/06/28 11:51:43;;;;;;;24.90;19.55;;;23.50;80.20;;;;;;5094534;28;20036;-52
2021/06/28 11:54:20;;;;;;;32.40;21.58;;;23.30;81.40;;;;;;5076356;28;20111;-50
2021/06/28 11:56:51;;;;;;;28.77;23.08;;;23.20;82.70;;;;;;5094670;28;20038;-47
2021/06/28 11:59:18;;;;;;;31.40;24.33;;;23.10;82.70;;;;;;5094541;28;20024;-52
2021/06/28 12:01:55;;;;;;;28.92;23.02;;;22.80;83.50;;;;;;5094677;28;20047;-52
2021/06/28 12:04:26;;;;;;;30.77;24.58;;;22.90;84.30;;;;;;5094736;28;20425;-49
2021/06/28 12:06:54;;;;;;;28.42;24.83;;;23.00;84.10;;;;;;5095221;28;20020;-52
2021/06/28 12:09:22;;;;;;;33.63;26.05;;;23.10;84.20;;;;;;5095063;28;20040;-50
2021/06/28 12:11:53;;;;;;;33.20;26.60;;;23.40;84.00;;;;;;5094423;28;20020;-50
2021/06/28 12:14:29;;;;;;;24.95;20.13;;;24.00;82.90;;;;;;5094342;28;20178;-51
2021/06/28 12:16:55;;;;;;;28.33;23.10;;;24.50;79.10;;;;;;5094438;28;20028;-52
2021/06/28 12:19:21;;;;;;;24.98;22.27;;;24.80;78.50;;;;;;5076791;28;20039;-51
2021/06/28 12:21:46;;;;;;;25.10;20.67;;;25.80;77.60;;;;;;5094370;28;20177;-52
2021/06/28 12:24:14;;;;;;;23.40;19.02;;;26.60;74.30;;;;;;5094845;28;20352;-51
2021/06/28 12:27:03;;;;;;;22.95;20.65;;;26.90;71.20;;;;;;5094544;28;20035;-50
2021/06/28 12:29:32;;;;;;;22.23;16.23;;;27.30;70.40;;;;;;5094755;28;20031;-50
2021/06/28 12:32:25;;;;;;;18.55;16.23;;;26.90;68.60;;;;;;5094196;28;20028;-51
2021/06/28 12:34:59;;;;;;;19.80;17.70;;;27.70;67.50;;;;;;5089777;28;20072;-48
2021/06/28 12:37:27;;;;;;;21.38;16.83;;;28.00;65.90;;;;;;5093693;28;20051;-50